Terminal Aerodrome Forecast
Issued by NWS

Home | Current Version | Previous Version | Text Only | Print | Product List | Glossary On
Versions: 1 2 3 4 5 6 7 8 9 10 11 12 13 14
000
FTUS44 KLZK 300540
TAFBPK
TAF
KBPK 300540Z 3006/3106 12003KT P6SM VCSH SCT050 BKN100
      TEMPO 3009/3013 5SM BR
     FM301500 16006KT P6SM SCT040 BKN250
     FM310100 13003KT P6SM SCT250
      AMD NOT SKED=

USA.gov is the U.S. government's official web portal to all federal, state and local government web resources and services.